Captain Neal Burgess — WDE6115 — position and weather

sailwx.info

Track history (hours):
 
Tides and Currents Weather Stations Pressure Air Temp Water Temp Dewpoint Dewpoint Depression Visibility Wind Speed Wind Dir Waves Ship Positions

Captain Neal Burgess

Owner: Maine State Ferry Service, Rockland, ME. More information available from US FCC via Universal Licensing System and Coast Guard Vessel Documentation Center.

Last reported at 2018-Feb-24 23:13 UTC. Time now 2018-Feb-25 08:09 UTC.
Position N 44°08' W 068°53'.

Type: Passenger vessel. MMSI: 367375970.

Date/timePositionNaut miles runAvg speedWind from/ knotsBaromVisibWave heightAir tempDewpointWater temp
2018-Feb-24 23:13N 44°08' W 068°53'210.4
2018-Feb-24 23:00N 44°06' W 068°55'511.1
2018-Feb-24 22:30N 44°06' W 069°03'2 3.2
2018-Feb-24 21:46N 44°06' W 069°06'310.2
2018-Feb-24 21:30N 44°06' W 069°03'610.8
2018-Feb-24 20:58N 44°07' W 068°55'2 2.5
2018-Feb-24 20:18N 44°08' W 068°53'310.7
2018-Feb-24 20:00N 44°06' W 068°56'611.4
2018-Feb-24 19:29N 44°06' W 069°04'1 2.7
2018-Feb-24 18:56N 44°06' W 069°06'0 0.9
2018-Feb-24 18:30N 44°06' W 069°06'610.9
2018-Feb-24 17:58N 44°06' W 068°58'4 1.5
2018-Feb-24 15:11N 44°08' W 068°52'0 0.0
2018-Feb-24 06:51N 44°08' W 068°52'410.5
2018-Feb-24 06:30N 44°06' W 068°57'611.1
2018-Feb-24 06:00N 44°06' W 069°05'1 2.5
2018-Feb-24 05:30N 44°06' W 069°06'3 6.8
2018-Feb-24 05:00N 44°07' W 069°02'5 9.8
2018-Feb-24 04:28N 44°07' W 068°55'2 0.3
2018-Feb-23 23:14N 44°08' W 068°52'2 9.7
2018-Feb-23 23:00N 44°07' W 068°55'610.9
2018-Feb-23 22:30N 44°06' W 069°03'3 5.0
2018-Feb-23 21:58N 44°06' W 069°06'3 5.7
2018-Feb-23 21:30N 44°06' W 069°03'511.0
2018-Feb-23 21:00N 44°07' W 068°55'2 3.3
2018-Feb-23 20:19N 44°08' W 068°52'410.9
2018-Feb-23 19:58N 44°06' W 068°57'511.0
2018-Feb-23 19:29N 44°06' W 069°05'1 3.0
2018-Feb-23 19:00N 44°06' W 069°06'0 0.2
2018-Feb-23 18:30N 44°06' W 069°06'510.7
2018-Feb-23 18:00N 44°06' W 068°59'5 2.6
2018-Feb-23 16:05N 44°08' W 068°52'0 0.0
2018-Feb-23 15:49N 44°08' W 068°52'0 0.2
2018-Feb-23 15:30N 44°08' W 068°52'510.4
2018-Feb-23 15:00N 44°06' W 068°59'510.5
2018-Feb-23 14:30N 44°06' W 069°06'0 0.0
2018-Feb-23 13:58N 44°06' W 069°06'0 0.5
2018-Feb-23 13:30N 44°06' W 069°06'510.6
2018-Feb-23 13:00N 44°06' W 068°59'5 4.0
2018-Feb-23 11:46N 44°08' W 068°52'0 0.0
2018-Feb-23 09:37N 44°08' W 068°52'0 0.0
2018-Feb-23 09:15N 44°08' W 068°52'0 0.0
2018-Feb-23 08:59N 44°08' W 068°52'0 0.0
2018-Feb-23 08:25N 44°08' W 068°52'0 0.0
2018-Feb-23 07:24N 44°08' W 068°52'0 0.0
2018-Feb-23 06:58N 44°08' W 068°52'0 0.0
2018-Feb-23 05:57N 44°08' W 068°52'0 0.0
2018-Feb-23 05:25N 44°08' W 068°52'0 0.0
2018-Feb-23 04:59N 44°08' W 068°52'0 0.0
2018-Feb-23 04:27N 44°08' W 068°52'0 0.0
2018-Feb-22 23:36N 44°08' W 068°52'0 0.1
2018-Feb-22 23:15N 44°08' W 068°52'2 9.8
2018-Feb-22 23:00N 44°06' W 068°55'611.1
2018-Feb-22 22:30N 44°06' W 069°03'2 4.8
2018-Feb-22 22:00N 44°06' W 069°06'3 5.7
2018-Feb-22 21:30N 44°06' W 069°03'510.7
2018-Feb-22 21:00N 44°07' W 068°55'2 3.5
2018-Feb-22 20:21N 44°08' W 068°52'3 9.7
2018-Feb-22 20:00N 44°06' W 068°56'611.7
2018-Feb-22 19:30N 44°06' W 069°05'1 2.7
2018-Feb-22 18:59N 44°06' W 069°06'0 0.3
2018-Feb-22 18:30N 44°06' W 069°06'510.9
2018-Feb-22 18:00N 44°06' W 068°59'5 1.9
2018-Feb-22 15:30N 44°08' W 068°53'5 9.9
2018-Feb-22 14:59N 44°06' W 068°59'5 4.1
2018-Feb-22 13:44N 44°06' W 069°06'0 0.7
2018-Feb-22 13:30N 44°06' W 069°06'510.5
2018-Feb-22 13:00N 44°06' W 068°59'5 0.4
2018-Feb-21 23:13N 44°08' W 068°52'310.3
2018-Feb-21 22:56N 44°06' W 068°56'511.9
2018-Feb-21 22:29N 44°06' W 069°03'2 4.5
2018-Feb-21 21:59N 44°06' W 069°06'3 6.7
2018-Feb-21 21:30N 44°06' W 069°02'510.0
2018-Feb-21 21:00N 44°07' W 068°55'2 4.1
2018-Feb-21 20:29N 44°08' W 068°52'3 6.9
2018-Feb-21 20:00N 44°06' W 068°56'611.6
2018-Feb-21 19:30N 44°06' W 069°05'1 1.9
2018-Feb-21 18:47N 44°06' W 069°06'0 1.5
2018-Feb-21 18:31N 44°06' W 069°06'611.0
2018-Feb-21 18:00N 44°06' W 068°58'4 1.8
2018-Feb-21 15:30N 44°07' W 068°53'510.0
2018-Feb-21 15:00N 44°06' W 068°59'5 9.8
2018-Feb-21 14:28N 44°06' W 069°06'0 0.0
2018-Feb-21 13:37N 44°06' W 069°06'0 3.2
2018-Feb-21 13:30N 44°06' W 069°06'511.0
2018-Feb-21 13:00N 44°06' W 068°58'5 0.3
2018-Feb-20 23:15N 44°08' W 068°52'310.1
2018-Feb-20 22:59N 44°06' W 068°56'511.1
2018-Feb-20 22:30N 44°06' W 069°03'2 4.7
2018-Feb-20 22:00N 44°06' W 069°06'3 5.1
2018-Feb-20 21:30N 44°06' W 069°03'610.9
2018-Feb-20 20:59N 44°07' W 068°55'2 3.6
2018-Feb-20 20:23N 44°08' W 068°52'410.5
2018-Feb-20 20:00N 44°06' W 068°57'511.2
2018-Feb-20 19:30N 44°06' W 069°05'1 1.5
2018-Feb-20 18:48N 44°06' W 069°06'0 0.9
2018-Feb-20 18:30N 44°06' W 069°06'510.6
2018-Feb-20 18:00N 44°06' W 068°59'5 1.9
2018-Feb-20 15:31N 44°08' W 068°53'0 6.9
2018-Feb-20 15:29N 44°08' W 068°53'510.4
2018-Feb-20 14:59N 44°06' W 068°60'5 3.4
2018-Feb-20 13:34N 44°06' W 069°06'0 4.7
2018-Feb-20 13:30N 44°06' W 069°06'610.8
2018-Feb-20 12:58N 44°06' W 068°58'4 0.3
2018-Feb-19 23:19N 44°08' W 068°53'310.3
2018-Feb-19 23:00N 44°06' W 068°56'5 9.9
2018-Feb-19 22:30N 44°06' W 069°03'2 3.9
2018-Feb-19 21:56N 44°06' W 069°06'4 8.8
2018-Feb-19 21:30N 44°06' W 069°01'4 8.8
2018-Feb-19 21:00N 44°07' W 068°55'2 3.3
2018-Feb-19 20:23N 44°08' W 068°52'410.5
2018-Feb-19 20:00N 44°05' W 068°57'510.5
2018-Feb-19 19:30N 44°06' W 069°04'1 3.0
2018-Feb-19 19:00N 44°06' W 069°06'1 2.3
2018-Feb-19 18:30N 44°06' W 069°05'510.1
2018-Feb-19 18:00N 44°05' W 068°58'5 3.0
2018-Feb-19 16:28N 44°08' W 068°52'0 0.0
2018-Feb-19 15:50N 44°08' W 068°52'0 0.4
2018-Feb-19 15:29N 44°08' W 068°53'510.2
2018-Feb-19 15:00N 44°06' W 068°59'510.8
2018-Feb-19 14:30N 44°06' W 069°06'0 0.0
2018-Feb-19 13:59N 44°06' W 069°06'0 0.6
2018-Feb-19 13:30N 44°06' W 069°06'510.6
2018-Feb-19 13:00N 44°06' W 068°59'5 0.3
2018-Feb-18 23:13N 44°07' W 068°53'210.3
2018-Feb-18 23:01N 44°07' W 068°55'510.9
2018-Feb-18 22:30N 44°06' W 069°03'3 5.1
2018-Feb-18 22:00N 44°06' W 069°06'3 5.4
2018-Feb-18 21:30N 44°06' W 069°03'611.1
2018-Feb-18 20:59N 44°07' W 068°55'2 2.8
2018-Feb-18 20:20N 44°08' W 068°52'410.0
2018-Feb-18 19:59N 44°06' W 068°57'511.4
2018-Feb-18 19:30N 44°06' W 069°04'2 3.0
2018-Feb-18 18:59N 44°06' W 069°06'0 0.6
2018-Feb-18 18:30N 44°06' W 069°06'510.6
2018-Feb-18 17:59N 44°06' W 068°59'5 9.6
2018-Feb-18 17:30N 44°08' W 068°52'0 0.0
2018-Feb-18 16:51N 44°08' W 068°52'0 0.0
2018-Feb-18 16:29N 44°08' W 068°52'0 0.0
2018-Feb-18 16:00N 44°08' W 068°52'1 1.3
2018-Feb-18 15:30N 44°08' W 068°53'5 9.6
2018-Feb-18 15:00N 44°06' W 068°60'510.0
2018-Feb-18 14:30N 44°06' W 069°06'0 0.0
2018-Feb-18 13:59N 44°06' W 069°06'0 0.7
2018-Feb-18 13:29N 44°06' W 069°06'511.0
2018-Feb-18 13:00N 44°06' W 068°58'5 0.3
2018-Feb-17 23:13N 44°08' W 068°52'210.0
2018-Feb-17 23:00N 44°07' W 068°55'611.1
2018-Feb-17 22:29N 44°06' W 069°03'2 5.0
2018-Feb-17 22:00N 44°06' W 069°06'3 5.6
2018-Feb-17 21:30N 44°06' W 069°03'510.9
2018-Feb-17 21:00N 44°07' W 068°55'2 3.0
2018-Feb-17 20:20N 44°08' W 068°52'310.0
2018-Feb-17 20:00N 44°06' W 068°56'611.3
2018-Feb-17 19:30N 44°06' W 069°04'2 3.1
2018-Feb-17 18:59N 44°06' W 069°06'0 0.3
2018-Feb-17 18:29N 44°06' W 069°06'510.8
2018-Feb-17 18:00N 44°06' W 068°59'5 2.0
2018-Feb-17 15:31N 44°08' W 068°52'0 2.6
2018-Feb-17 15:29N 44°08' W 068°53'510.5
2018-Feb-17 15:00N 44°06' W 068°59'510.3
2018-Feb-17 14:29N 44°06' W 069°06'0 0.0
2018-Feb-17 13:59N 44°06' W 069°06'0 0.8
2018-Feb-17 13:30N 44°06' W 069°06'610.9
2018-Feb-17 12:59N 44°06' W 068°58'4 9.2
2018-Feb-17 12:30N 44°08' W 068°52'0 0.0
2018-Feb-16 23:14N 44°08' W 068°52'210.0
2018-Feb-16 22:59N 44°06' W 068°55'611.1
2018-Feb-16 22:30N 44°06' W 069°03'2 4.7
2018-Feb-16 21:58N 44°06' W 069°06'3 5.4
2018-Feb-16 21:30N 44°06' W 069°03'511.1
2018-Feb-16 21:00N 44°06' W 068°55'2 3.4
2018-Feb-16 20:19N 44°08' W 068°53'310.2
2018-Feb-16 20:00N 44°06' W 068°56'611.4
2018-Feb-16 19:29N 44°06' W 069°04'1 2.3
2018-Feb-16 18:51N 44°06' W 069°06'0 1.2
2018-Feb-16 18:29N 44°06' W 069°06'511.2
2018-Feb-16 18:00N 44°06' W 068°59'5 9.6
2018-Feb-16 17:30N 44°08' W 068°52'0 0.0
2018-Feb-16 16:58N 44°08' W 068°52'0 0.0
2018-Feb-16 16:20N 44°08' W 068°52'0 0.0
2018-Feb-16 16:00N 44°08' W 068°52'0 0.3
2018-Feb-16 15:30N 44°08' W 068°53'510.1
2018-Feb-16 14:58N 44°06' W 068°60'510.2
2018-Feb-16 14:29N 44°06' W 069°06'0 0.0
2018-Feb-16 13:59N 44°06' W 069°06'1 1.6
2018-Feb-16 13:30N 44°06' W 069°05'611.5
2018-Feb-16 13:00N 44°06' W 068°58'4 0.3
2018-Feb-15 23:14N 44°08' W 068°52'310.9
2018-Feb-15 23:00N 44°06' W 068°56'510.9
2018-Feb-15 22:30N 44°06' W 069°03'2 4.1
2018-Feb-15 21:55N 44°06' W 069°06'3 7.2
2018-Feb-15 21:29N 44°06' W 069°02'510.8
2018-Feb-15 21:00N 44°07' W 068°55'2 3.0
2018-Feb-15 20:20N 44°08' W 068°52'310.0
2018-Feb-15 20:00N 44°06' W 068°56'611.4
2018-Feb-15 19:29N 44°06' W 069°05'1 1.6
2018-Feb-15 18:35N 44°06' W 069°06'0 2.0
2018-Feb-15 18:30N 44°06' W 069°06'510.6
2018-Feb-15 18:00N 44°06' W 068°59'5 5.3
2018-Feb-15 17:04N 44°08' W 068°52'0 0.0
2018-Feb-15 16:57N 44°08' W 068°52'0 0.0
2018-Feb-15 16:27N 44°08' W 068°52'0 0.0
2018-Feb-15 16:00N 44°08' W 068°52'0 0.3
2018-Feb-15 15:30N 44°08' W 068°53'510.3
2018-Feb-15 14:59N 44°06' W 068°60'5 9.6
2018-Feb-15 14:29N 44°06' W 069°06'0 0.0
2018-Feb-15 14:00N 44°06' W 069°06'1 1.3
2018-Feb-15 13:30N 44°06' W 069°06'611.5
2018-Feb-15 13:00N 44°06' W 068°58'4 0.3
2018-Feb-14 23:16N 44°08' W 068°52'  
Track history (hours):
 
Tides and Currents Weather Stations Pressure Air Temp Water Temp Dewpoint Dewpoint Depression Visibility Wind Speed Wind Dir Waves Ship Positions

Captain Neal Burgess

Owner: Maine State Ferry Service, Rockland, ME. More information available from US FCC via Universal Licensing System and Coast Guard Vessel Documentation Center.

Last reported at 2018-Feb-24 23:13 UTC. Time now 2018-Feb-25 08:09 UTC.
Position N 44°08' W 068°53'.

Type: Passenger vessel. MMSI: 367375970.

Date/timePositionNaut miles runAvg speedWind from/ knotsBaromVisibWave heightAir tempDewpointWater temp
2018-Feb-24 23:13N 44°08' W 068°53'210.4
2018-Feb-24 23:00N 44°06' W 068°55'511.1
2018-Feb-24 22:30N 44°06' W 069°03'2 3.2
2018-Feb-24 21:46N 44°06' W 069°06'310.2
2018-Feb-24 21:30N 44°06' W 069°03'610.8
2018-Feb-24 20:58N 44°07' W 068°55'2 2.5
2018-Feb-24 20:18N 44°08' W 068°53'310.7
2018-Feb-24 20:00N 44°06' W 068°56'611.4
2018-Feb-24 19:29N 44°06' W 069°04'1 2.7
2018-Feb-24 18:56N 44°06' W 069°06'0 0.9
2018-Feb-24 18:30N 44°06' W 069°06'610.9
2018-Feb-24 17:58N 44°06' W 068°58'4 1.5
2018-Feb-24 15:11N 44°08' W 068°52'0 0.0
2018-Feb-24 06:51N 44°08' W 068°52'410.5
2018-Feb-24 06:30N 44°06' W 068°57'611.1
2018-Feb-24 06:00N 44°06' W 069°05'1 2.5
2018-Feb-24 05:30N 44°06' W 069°06'3 6.8
2018-Feb-24 05:00N 44°07' W 069°02'5 9.8
2018-Feb-24 04:28N 44°07' W 068°55'2 0.3
2018-Feb-23 23:14N 44°08' W 068°52'2 9.7
2018-Feb-23 23:00N 44°07' W 068°55'610.9
2018-Feb-23 22:30N 44°06' W 069°03'3 5.0
2018-Feb-23 21:58N 44°06' W 069°06'3 5.7
2018-Feb-23 21:30N 44°06' W 069°03'511.0
2018-Feb-23 21:00N 44°07' W 068°55'2 3.3
2018-Feb-23 20:19N 44°08' W 068°52'410.9
2018-Feb-23 19:58N 44°06' W 068°57'511.0
2018-Feb-23 19:29N 44°06' W 069°05'1 3.0
2018-Feb-23 19:00N 44°06' W 069°06'0 0.2
2018-Feb-23 18:30N 44°06' W 069°06'510.7
2018-Feb-23 18:00N 44°06' W 068°59'5 2.6
2018-Feb-23 16:05N 44°08' W 068°52'0 0.0
2018-Feb-23 15:49N 44°08' W 068°52'0 0.2
2018-Feb-23 15:30N 44°08' W 068°52'510.4
2018-Feb-23 15:00N 44°06' W 068°59'510.5
2018-Feb-23 14:30N 44°06' W 069°06'0 0.0
2018-Feb-23 13:58N 44°06' W 069°06'0 0.5
2018-Feb-23 13:30N 44°06' W 069°06'510.6
2018-Feb-23 13:00N 44°06' W 068°59'5 4.0
2018-Feb-23 11:46N 44°08' W 068°52'0 0.0
2018-Feb-23 09:37N 44°08' W 068°52'0 0.0
2018-Feb-23 09:15N 44°08' W 068°52'0 0.0
2018-Feb-23 08:59N 44°08' W 068°52'0 0.0
2018-Feb-23 08:25N 44°08' W 068°52'0 0.0
2018-Feb-23 07:24N 44°08' W 068°52'0 0.0
2018-Feb-23 06:58N 44°08' W 068°52'0 0.0
2018-Feb-23 05:57N 44°08' W 068°52'0 0.0
2018-Feb-23 05:25N 44°08' W 068°52'0 0.0
2018-Feb-23 04:59N 44°08' W 068°52'0 0.0
2018-Feb-23 04:27N 44°08' W 068°52'0 0.0
2018-Feb-22 23:36N 44°08' W 068°52'0 0.1
2018-Feb-22 23:15N 44°08' W 068°52'2 9.8
2018-Feb-22 23:00N 44°06' W 068°55'611.1
2018-Feb-22 22:30N 44°06' W 069°03'2 4.8
2018-Feb-22 22:00N 44°06' W 069°06'3 5.7
2018-Feb-22 21:30N 44°06' W 069°03'510.7
2018-Feb-22 21:00N 44°07' W 068°55'2 3.5
2018-Feb-22 20:21N 44°08' W 068°52'3 9.7
2018-Feb-22 20:00N 44°06' W 068°56'611.7
2018-Feb-22 19:30N 44°06' W 069°05'1 2.7
2018-Feb-22 18:59N 44°06' W 069°06'0 0.3
2018-Feb-22 18:30N 44°06' W 069°06'510.9
2018-Feb-22 18:00N 44°06' W 068°59'5 1.9
2018-Feb-22 15:30N 44°08' W 068°53'5 9.9
2018-Feb-22 14:59N 44°06' W 068°59'5 4.1
2018-Feb-22 13:44N 44°06' W 069°06'0 0.7
2018-Feb-22 13:30N 44°06' W 069°06'510.5
2018-Feb-22 13:00N 44°06' W 068°59'5 0.4
2018-Feb-21 23:13N 44°08' W 068°52'310.3
2018-Feb-21 22:56N 44°06' W 068°56'511.9
2018-Feb-21 22:29N 44°06' W 069°03'2 4.5
2018-Feb-21 21:59N 44°06' W 069°06'3 6.7
2018-Feb-21 21:30N 44°06' W 069°02'510.0
2018-Feb-21 21:00N 44°07' W 068°55'2 4.1
2018-Feb-21 20:29N 44°08' W 068°52'3 6.9
2018-Feb-21 20:00N 44°06' W 068°56'611.6
2018-Feb-21 19:30N 44°06' W 069°05'1 1.9
2018-Feb-21 18:47N 44°06' W 069°06'0 1.5
2018-Feb-21 18:31N 44°06' W 069°06'611.0
2018-Feb-21 18:00N 44°06' W 068°58'4 1.8
2018-Feb-21 15:30N 44°07' W 068°53'510.0
2018-Feb-21 15:00N 44°06' W 068°59'5 9.8
2018-Feb-21 14:28N 44°06' W 069°06'0 0.0
2018-Feb-21 13:37N 44°06' W 069°06'0 3.2
2018-Feb-21 13:30N 44°06' W 069°06'511.0
2018-Feb-21 13:00N 44°06' W 068°58'5 0.3
2018-Feb-20 23:15N 44°08' W 068°52'310.1
2018-Feb-20 22:59N 44°06' W 068°56'511.1
2018-Feb-20 22:30N 44°06' W 069°03'2 4.7
2018-Feb-20 22:00N 44°06' W 069°06'3 5.1
2018-Feb-20 21:30N 44°06' W 069°03'610.9
2018-Feb-20 20:59N 44°07' W 068°55'2 3.6
2018-Feb-20 20:23N 44°08' W 068°52'410.5
2018-Feb-20 20:00N 44°06' W 068°57'511.2
2018-Feb-20 19:30N 44°06' W 069°05'1 1.5
2018-Feb-20 18:48N 44°06' W 069°06'0 0.9
2018-Feb-20 18:30N 44°06' W 069°06'510.6
2018-Feb-20 18:00N 44°06' W 068°59'5 1.9
2018-Feb-20 15:31N 44°08' W 068°53'0 6.9
2018-Feb-20 15:29N 44°08' W 068°53'510.4
2018-Feb-20 14:59N 44°06' W 068°60'5 3.4
2018-Feb-20 13:34N 44°06' W 069°06'0 4.7
2018-Feb-20 13:30N 44°06' W 069°06'610.8
2018-Feb-20 12:58N 44°06' W 068°58'4 0.3
2018-Feb-19 23:19N 44°08' W 068°53'310.3
2018-Feb-19 23:00N 44°06' W 068°56'5 9.9
2018-Feb-19 22:30N 44°06' W 069°03'2 3.9
2018-Feb-19 21:56N 44°06' W 069°06'4 8.8
2018-Feb-19 21:30N 44°06' W 069°01'4 8.8
2018-Feb-19 21:00N 44°07' W 068°55'2 3.3
2018-Feb-19 20:23N 44°08' W 068°52'410.5
2018-Feb-19 20:00N 44°05' W 068°57'510.5
2018-Feb-19 19:30N 44°06' W 069°04'1 3.0
2018-Feb-19 19:00N 44°06' W 069°06'1 2.3
2018-Feb-19 18:30N 44°06' W 069°05'510.1
2018-Feb-19 18:00N 44°05' W 068°58'5 3.0
2018-Feb-19 16:28N 44°08' W 068°52'0 0.0
2018-Feb-19 15:50N 44°08' W 068°52'0 0.4
2018-Feb-19 15:29N 44°08' W 068°53'510.2
2018-Feb-19 15:00N 44°06' W 068°59'510.8
2018-Feb-19 14:30N 44°06' W 069°06'0 0.0
2018-Feb-19 13:59N 44°06' W 069°06'0 0.6
2018-Feb-19 13:30N 44°06' W 069°06'510.6
2018-Feb-19 13:00N 44°06' W 068°59'5 0.3
2018-Feb-18 23:13N 44°07' W 068°53'210.3
2018-Feb-18 23:01N 44°07' W 068°55'510.9
2018-Feb-18 22:30N 44°06' W 069°03'3 5.1
2018-Feb-18 22:00N 44°06' W 069°06'3 5.4
2018-Feb-18 21:30N 44°06' W 069°03'611.1
2018-Feb-18 20:59N 44°07' W 068°55'2 2.8
2018-Feb-18 20:20N 44°08' W 068°52'410.0
2018-Feb-18 19:59N 44°06' W 068°57'511.4
2018-Feb-18 19:30N 44°06' W 069°04'2 3.0
2018-Feb-18 18:59N 44°06' W 069°06'0 0.6
2018-Feb-18 18:30N 44°06' W 069°06'510.6
2018-Feb-18 17:59N 44°06' W 068°59'5 9.6
2018-Feb-18 17:30N 44°08' W 068°52'0 0.0
2018-Feb-18 16:51N 44°08' W 068°52'0 0.0
2018-Feb-18 16:29N 44°08' W 068°52'0 0.0
2018-Feb-18 16:00N 44°08' W 068°52'1 1.3
2018-Feb-18 15:30N 44°08' W 068°53'5 9.6
2018-Feb-18 15:00N 44°06' W 068°60'510.0
2018-Feb-18 14:30N 44°06' W 069°06'0 0.0
2018-Feb-18 13:59N 44°06' W 069°06'0 0.7
2018-Feb-18 13:29N 44°06' W 069°06'511.0
2018-Feb-18 13:00N 44°06' W 068°58'5 0.3
2018-Feb-17 23:13N 44°08' W 068°52'210.0
2018-Feb-17 23:00N 44°07' W 068°55'611.1
2018-Feb-17 22:29N 44°06' W 069°03'2 5.0
2018-Feb-17 22:00N 44°06' W 069°06'3 5.6
2018-Feb-17 21:30N 44°06' W 069°03'510.9
2018-Feb-17 21:00N 44°07' W 068°55'2 3.0
2018-Feb-17 20:20N 44°08' W 068°52'310.0
2018-Feb-17 20:00N 44°06' W 068°56'611.3
2018-Feb-17 19:30N 44°06' W 069°04'2 3.1
2018-Feb-17 18:59N 44°06' W 069°06'0 0.3
2018-Feb-17 18:29N 44°06' W 069°06'510.8
2018-Feb-17 18:00N 44°06' W 068°59'5 2.0
2018-Feb-17 15:31N 44°08' W 068°52'0 2.6
2018-Feb-17 15:29N 44°08' W 068°53'510.5
2018-Feb-17 15:00N 44°06' W 068°59'510.3
2018-Feb-17 14:29N 44°06' W 069°06'0 0.0
2018-Feb-17 13:59N 44°06' W 069°06'0 0.8
2018-Feb-17 13:30N 44°06' W 069°06'610.9
2018-Feb-17 12:59N 44°06' W 068°58'4 9.2
2018-Feb-17 12:30N 44°08' W 068°52'0 0.0
2018-Feb-16 23:14N 44°08' W 068°52'210.0
2018-Feb-16 22:59N 44°06' W 068°55'611.1
2018-Feb-16 22:30N 44°06' W 069°03'2 4.7
2018-Feb-16 21:58N 44°06' W 069°06'3 5.4
2018-Feb-16 21:30N 44°06' W 069°03'511.1
2018-Feb-16 21:00N 44°06' W 068°55'2 3.4
2018-Feb-16 20:19N 44°08' W 068°53'310.2
2018-Feb-16 20:00N 44°06' W 068°56'611.4
2018-Feb-16 19:29N 44°06' W 069°04'1 2.3
2018-Feb-16 18:51N 44°06' W 069°06'0 1.2
2018-Feb-16 18:29N 44°06' W 069°06'511.2
2018-Feb-16 18:00N 44°06' W 068°59'5 9.6
2018-Feb-16 17:30N 44°08' W 068°52'0 0.0
2018-Feb-16 16:58N 44°08' W 068°52'0 0.0
2018-Feb-16 16:20N 44°08' W 068°52'0 0.0
2018-Feb-16 16:00N 44°08' W 068°52'0 0.3
2018-Feb-16 15:30N 44°08' W 068°53'510.1
2018-Feb-16 14:58N 44°06' W 068°60'510.2
2018-Feb-16 14:29N 44°06' W 069°06'0 0.0
2018-Feb-16 13:59N 44°06' W 069°06'1 1.6
2018-Feb-16 13:30N 44°06' W 069°05'611.5
2018-Feb-16 13:00N 44°06' W 068°58'4 0.3
2018-Feb-15 23:14N 44°08' W 068°52'310.9
2018-Feb-15 23:00N 44°06' W 068°56'510.9
2018-Feb-15 22:30N 44°06' W 069°03'2 4.1
2018-Feb-15 21:55N 44°06' W 069°06'3 7.2
2018-Feb-15 21:29N 44°06' W 069°02'510.8
2018-Feb-15 21:00N 44°07' W 068°55'2 3.0
2018-Feb-15 20:20N 44°08' W 068°52'310.0
2018-Feb-15 20:00N 44°06' W 068°56'611.4
2018-Feb-15 19:29N 44°06' W 069°05'1 1.6
2018-Feb-15 18:35N 44°06' W 069°06'0 2.0
2018-Feb-15 18:30N 44°06' W 069°06'510.6
2018-Feb-15 18:00N 44°06' W 068°59'5 5.3
2018-Feb-15 17:04N 44°08' W 068°52'0 0.0
2018-Feb-15 16:57N 44°08' W 068°52'0 0.0
2018-Feb-15 16:27N 44°08' W 068°52'0 0.0
2018-Feb-15 16:00N 44°08' W 068°52'0 0.3
2018-Feb-15 15:30N 44°08' W 068°53'510.3
2018-Feb-15 14:59N 44°06' W 068°60'5 9.6
2018-Feb-15 14:29N 44°06' W 069°06'0 0.0
2018-Feb-15 14:00N 44°06' W 069°06'1 1.3
2018-Feb-15 13:30N 44°06' W 069°06'611.5
2018-Feb-15 13:00N 44°06' W 068°58'4 0.3
2018-Feb-14 23:16N 44°08' W 068°52'  

Dump ship's entire track history